createdAt,value
2023-01-31T00:01:23.458Z,80.80
2023-01-31T00:03:54.716Z,80.30
2023-01-31T00:06:23.752Z,81.14
2023-01-31T00:08:51.149Z,80.57
2023-01-31T00:11:19.578Z,80.49
2023-01-31T00:13:46.719Z,80.42
2023-01-31T00:16:15.009Z,79.99
2023-01-31T00:18:41.982Z,80.27
2023-01-31T00:21:14.571Z,80.73
2023-01-31T00:23:42.861Z,80.36
2023-01-31T00:26:25.702Z,80.79
2023-01-31T00:28:56.222Z,80.03
2023-01-31T00:31:24.240Z,80.06
2023-01-31T00:33:52.427Z,78.50
2023-01-31T00:36:21.312Z,78.51
2023-01-31T00:38:49.525Z,78.39
2023-01-31T00:41:16.335Z,78.24
2023-01-31T00:43:43.345Z,78.44
2023-01-31T00:46:09.896Z,78.45
2023-01-31T00:48:37.134Z,77.74
2023-01-31T00:51:04.307Z,77.78
2023-01-31T00:53:30.834Z,78.61
2023-01-31T00:56:03.711Z,77.79
2023-01-31T00:58:30.194Z,78.10
2023-01-31T01:00:56.705Z,77.26
2023-01-31T01:03:23.204Z,77.44
2023-01-31T01:05:49.788Z,76.54
2023-01-31T01:08:16.237Z,76.58
2023-01-31T01:10:42.813Z,75.67
2023-01-31T01:13:09.310Z,75.42
2023-01-31T01:15:39.183Z,75.64
2023-01-31T01:18:05.809Z,75.35
2023-01-31T01:20:32.334Z,75.34
2023-01-31T01:22:59.163Z,74.86
2023-01-31T01:25:25.531Z,74.27
2023-01-31T01:27:52.144Z,74.30
2023-01-31T01:30:18.570Z,74.86
2023-01-31T01:32:45.044Z,75.00
2023-01-31T01:35:11.464Z,76.02
2023-01-31T01:37:37.923Z,77.19
2023-01-31T01:40:04.845Z,77.15
2023-01-31T01:42:35.052Z,78.03
2023-01-31T01:45:03.702Z,79.18
2023-01-31T01:47:52.902Z,80.01
2023-01-31T01:50:33.627Z,79.86
2023-01-31T01:53:12.435Z,79.96
2023-01-31T01:55:43.012Z,80.12
2023-01-31T01:58:33.808Z,79.96
2023-01-31T02:01:00.351Z,79.72
2023-01-31T02:03:27.460Z,80.00
2023-01-31T02:06:00.567Z,80.25
2023-01-31T02:08:30.498Z,81.79
2023-01-31T02:11:06.470Z,82.04
2023-01-31T02:13:34.192Z,82.13
2023-01-31T02:16:01.487Z,82.06
2023-01-31T02:18:28.876Z,81.79
2023-01-31T02:21:14.900Z,81.44
2023-01-31T02:23:56.841Z,81.39
2023-01-31T02:27:04.978Z,81.30
2023-01-31T02:29:53.559Z,80.45
2023-01-31T02:32:31.011Z,79.64
2023-01-31T02:35:12.888Z,79.50
2023-01-31T02:37:49.309Z,78.76
2023-01-31T02:40:22.885Z,78.89
2023-01-31T02:43:06.312Z,77.60
2023-01-31T02:45:57.743Z,77.28
2023-01-31T02:48:29.451Z,77.04
2023-01-31T02:51:09.677Z,76.80
2023-01-31T02:53:42.615Z,76.68
2023-01-31T02:56:18.228Z,76.11
2023-01-31T02:58:56.411Z,75.54
2023-01-31T03:01:29.036Z,74.42
2023-01-31T03:04:06.814Z,75.32
2023-01-31T03:06:36.780Z,75.23
2023-01-31T03:09:22.130Z,75.17
2023-01-31T03:12:12.722Z,74.67
2023-01-31T03:14:59.410Z,74.54
2023-01-31T03:17:34.281Z,74.03
2023-01-31T03:20:15.925Z,74.63
2023-01-31T03:22:46.868Z,74.27
2023-01-31T03:25:15.501Z,74.72
2023-01-31T03:27:45.313Z,75.56
2023-01-31T03:30:18.600Z,75.85
2023-01-31T03:32:49.518Z,76.82
2023-01-31T03:35:16.710Z,76.80
2023-01-31T03:38:06.156Z,76.96
2023-01-31T03:40:42.151Z,77.53
2023-01-31T03:43:32.802Z,77.49
2023-01-31T03:46:03.678Z,77.14
2023-01-31T03:48:33.356Z,78.23
2023-01-31T03:51:02.176Z,79.10
2023-01-31T03:53:33.018Z,78.63
2023-01-31T03:56:28.325Z,79.55
2023-01-31T03:58:59.159Z,79.54
2023-01-31T04:01:29.074Z,80.58
2023-01-31T04:04:01.904Z,80.84
2023-01-31T04:06:28.619Z,81.10
2023-01-31T04:08:55.244Z,81.62
2023-01-31T04:11:24.995Z,82.00
2023-01-31T04:13:51.476Z,82.43
2023-01-31T04:16:18.130Z,82.55
2023-01-31T04:18:44.604Z,82.88
2023-01-31T04:21:11.722Z,83.76
2023-01-31T04:23:38.154Z,84.49
2023-01-31T04:26:04.715Z,84.90
2023-01-31T04:28:32.090Z,85.30
2023-01-31T04:30:58.619Z,86.22
2023-01-31T04:33:25.164Z,86.26
2023-01-31T04:35:52.137Z,86.91
2023-01-31T04:38:19.230Z,87.60
2023-01-31T04:40:45.698Z,88.12
2023-01-31T04:43:12.263Z,87.30
2023-01-31T04:45:38.756Z,87.71
2023-01-31T04:48:05.835Z,88.09
2023-01-31T04:50:32.230Z,88.22
2023-01-31T04:52:58.793Z,88.08
2023-01-31T04:55:26.850Z,87.26
2023-01-31T04:57:53.555Z,87.27
2023-01-31T05:00:20.193Z,86.34
2023-01-31T05:02:46.979Z,84.95
2023-01-31T05:05:13.492Z,85.35
2023-01-31T05:07:40.049Z,86.49
2023-01-31T05:10:07.736Z,85.94
2023-01-31T05:12:34.201Z,86.02
2023-01-31T05:15:01.668Z,85.55
2023-01-31T05:17:29.910Z,86.02
2023-01-31T05:19:57.119Z,85.12
2023-01-31T05:22:23.614Z,85.84
2023-01-31T05:24:51.217Z,86.02
2023-01-31T05:27:18.670Z,85.65
2023-01-31T05:29:45.875Z,84.68
2023-01-31T05:32:13.179Z,84.58
2023-01-31T05:34:39.575Z,84.53
2023-01-31T05:37:06.350Z,84.32
2023-01-31T05:39:32.881Z,84.36
2023-01-31T05:41:59.546Z,83.83
2023-01-31T05:44:26.024Z,82.85
2023-01-31T05:46:52.768Z,83.34
2023-01-31T05:49:19.931Z,83.71
2023-01-31T05:51:46.406Z,83.78
2023-01-31T05:54:13.061Z,84.16
2023-01-31T05:56:39.590Z,84.64
2023-01-31T05:59:06.620Z,84.04
2023-01-31T06:01:33.567Z,85.11
2023-01-31T06:04:00.665Z,86.20
2023-01-31T06:06:27.239Z,86.70
2023-01-31T06:08:53.669Z,85.90
2023-01-31T06:11:20.112Z,87.05
2023-01-31T06:13:46.614Z,86.83
2023-01-31T06:16:13.219Z,85.50
2023-01-31T06:18:40.200Z,86.78
2023-01-31T06:21:07.510Z,86.56
2023-01-31T06:23:37.165Z,86.58
2023-01-31T06:26:03.658Z,86.58
2023-01-31T06:28:30.651Z,85.78
2023-01-31T06:30:57.920Z,85.66
2023-01-31T06:33:31.473Z,85.01
2023-01-31T06:36:05.401Z,84.98
2023-01-31T06:38:32.034Z,85.09
2023-01-31T06:40:58.634Z,85.60
2023-01-31T06:43:25.172Z,84.95
2023-01-31T06:45:51.681Z,85.26
2023-01-31T06:48:19.538Z,86.68
2023-01-31T06:50:45.973Z,87.21
2023-01-31T06:53:12.450Z,86.59
2023-01-31T06:55:39.069Z,87.15
2023-01-31T06:58:05.598Z,87.11
2023-01-31T07:00:32.582Z,86.13
2023-01-31T07:02:59.180Z,86.35
2023-01-31T07:05:25.915Z,85.66
2023-01-31T07:07:52.585Z,84.74
2023-01-31T07:10:19.113Z,84.39
2023-01-31T07:12:45.626Z,84.97
2023-01-31T07:15:12.544Z,84.81
2023-01-31T07:17:39.191Z,85.88
2023-01-31T07:20:06.300Z,85.15
2023-01-31T07:22:32.792Z,84.99
2023-01-31T07:24:59.363Z,84.35
2023-01-31T07:27:25.802Z,84.98
2023-01-31T07:29:52.396Z,83.55
2023-01-31T07:32:18.799Z,83.60
2023-01-31T07:34:45.179Z,82.91
2023-01-31T07:37:11.667Z,83.31
2023-01-31T07:39:38.136Z,82.57
2023-01-31T07:42:04.660Z,82.58
2023-01-31T07:44:31.142Z,81.97
2023-01-31T07:46:58.197Z,83.60
2023-01-31T07:49:24.712Z,82.83
2023-01-31T07:51:51.392Z,83.60
2023-01-31T07:54:18.310Z,83.29
2023-01-31T07:56:44.805Z,82.81
2023-01-31T07:59:12.625Z,82.92
2023-01-31T08:01:57.698Z,82.84
2023-01-31T08:04:24.567Z,83.03
2023-01-31T08:06:54.205Z,83.22
2023-01-31T08:09:21.121Z,82.32
2023-01-31T08:11:47.702Z,82.19
2023-01-31T08:14:14.416Z,81.14
2023-01-31T08:16:41.035Z,79.97
2023-01-31T08:19:07.657Z,78.79
2023-01-31T08:21:34.072Z,79.00
2023-01-31T08:24:00.485Z,78.41
2023-01-31T08:26:26.962Z,76.40
2023-01-31T08:28:54.988Z,75.53
2023-01-31T08:31:24.441Z,75.47
2023-01-31T08:33:53.159Z,77.53
2023-01-31T08:36:23.270Z,75.18
2023-01-31T08:38:50.282Z,75.88
2023-01-31T08:41:18.118Z,75.41
2023-01-31T08:43:56.430Z,74.98
2023-01-31T08:46:25.772Z,74.72
2023-01-31T08:48:52.284Z,73.51
2023-01-31T08:51:18.792Z,74.42
2023-01-31T08:53:45.412Z,73.91
2023-01-31T08:56:13.623Z,73.33
2023-01-31T08:58:41.945Z,72.47
2023-01-31T09:01:11.851Z,72.25
2023-01-31T09:03:38.785Z,71.89
2023-01-31T09:06:08.082Z,71.41
2023-01-31T09:08:34.788Z,71.36
2023-01-31T09:11:01.870Z,70.98
2023-01-31T09:13:29.215Z,70.32
2023-01-31T09:16:04.277Z,68.45
2023-01-31T09:18:31.047Z,68.29
2023-01-31T09:21:03.550Z,66.51
2023-01-31T09:23:29.989Z,65.86
2023-01-31T09:25:56.785Z,64.50
2023-01-31T09:28:23.771Z,63.16
2023-01-31T09:30:53.055Z,62.50
2023-01-31T09:33:20.480Z,60.46
2023-01-31T09:36:01.886Z,62.42
2023-01-31T09:38:28.646Z,62.33
2023-01-31T09:40:55.934Z,63.54
2023-01-31T09:43:25.042Z,62.65
2023-01-31T09:45:53.691Z,62.36
2023-01-31T09:48:22.769Z,63.87
2023-01-31T09:50:56.119Z,63.57
2023-01-31T09:53:29.649Z,63.53
2023-01-31T09:56:24.265Z,62.43
2023-01-31T09:59:14.650Z,60.38
2023-01-31T10:02:04.216Z,58.55
2023-01-31T10:04:57.269Z,59.52
2023-01-31T10:07:34.244Z,58.84
2023-01-31T10:10:17.424Z,59.93
2023-01-31T10:12:50.248Z,60.96
2023-01-31T10:15:32.864Z,61.48
2023-01-31T10:18:02.521Z,62.75
2023-01-31T10:20:34.370Z,63.13
2023-01-31T10:23:19.987Z,64.56
2023-01-31T10:25:46.374Z,64.06
2023-01-31T10:28:36.689Z,62.75
2023-01-31T10:31:30.528Z,62.13
2023-01-31T10:34:03.524Z,62.90
2023-01-31T10:36:51.706Z,62.41
2023-01-31T10:39:34.370Z,62.36
2023-01-31T10:42:20.679Z,63.66
2023-01-31T10:44:53.469Z,63.26
2023-01-31T10:47:22.409Z,62.31
2023-01-31T10:49:50.409Z,62.05
2023-01-31T10:52:37.100Z,61.78
2023-01-31T10:55:26.088Z,63.08
2023-01-31T10:57:53.304Z,61.95
2023-01-31T11:00:23.461Z,62.09
2023-01-31T11:09:02.028Z,61.94
2023-01-31T11:11:29.511Z,61.12
2023-01-31T11:13:57.213Z,62.07
2023-01-31T11:16:24.382Z,62.42
2023-01-31T11:18:51.807Z,62.06
2023-01-31T11:21:28.099Z,61.74
2023-01-31T11:24:03.173Z,62.14
2023-01-31T11:26:38.673Z,62.20
2023-01-31T11:29:17.388Z,61.62
2023-01-31T11:31:47.485Z,61.50
2023-01-31T11:34:24.250Z,59.63
2023-01-31T11:36:51.839Z,60.85
2023-01-31T11:39:39.702Z,59.24
2023-01-31T11:42:14.761Z,59.29
2023-01-31T11:44:57.168Z,60.17
2023-01-31T11:47:27.801Z,60.22
2023-01-31T11:49:54.352Z,59.47
2023-01-31T11:52:22.371Z,59.68
2023-01-31T11:55:01.399Z,57.47
2023-01-31T11:57:33.722Z,53.73
2023-01-31T12:00:02.629Z,53.28
2023-01-31T12:02:31.435Z,53.71
2023-01-31T12:04:58.462Z,54.54
2023-01-31T12:07:29.045Z,55.59
2023-01-31T12:09:55.525Z,56.44
2023-01-31T12:12:24.213Z,56.43
2023-01-31T12:14:50.787Z,56.99
2023-01-31T12:17:18.463Z,56.66
2023-01-31T12:19:50.217Z,57.71
2023-01-31T12:22:25.882Z,57.06
2023-01-31T12:25:09.604Z,57.34
2023-01-31T12:28:01.606Z,57.11
2023-01-31T12:30:44.864Z,57.75
2023-01-31T12:33:35.523Z,57.86
2023-01-31T12:36:11.889Z,59.06
2023-01-31T12:39:02.008Z,59.75
2023-01-31T12:41:34.303Z,59.39
2023-01-31T12:44:25.480Z,61.56
2023-01-31T12:47:11.846Z,63.34
2023-01-31T12:49:50.845Z,65.15
2023-01-31T12:52:49.550Z,65.77
2023-01-31T12:55:24.771Z,65.89
2023-01-31T12:58:02.146Z,65.54
2023-01-31T13:00:55.157Z,65.53
2023-01-31T13:03:21.656Z,65.60
2023-01-31T13:06:01.773Z,65.34
2023-01-31T13:08:33.247Z,66.27
2023-01-31T13:11:06.441Z,65.20
2023-01-31T13:13:46.005Z,66.51
2023-01-31T13:16:21.925Z,66.36
2023-01-31T13:18:50.571Z,67.86
2023-01-31T13:21:23.609Z,67.48
2023-01-31T13:23:54.251Z,69.06
2023-01-31T13:26:33.214Z,68.90
2023-01-31T13:29:19.766Z,71.56
2023-01-31T13:31:59.389Z,73.10
2023-01-31T13:34:41.301Z,73.48
2023-01-31T13:37:11.916Z,75.07
2023-01-31T13:40:05.047Z,75.27
2023-01-31T13:42:33.287Z,75.51
2023-01-31T13:45:04.474Z,76.12
2023-01-31T13:47:38.226Z,74.77
2023-01-31T13:50:28.002Z,75.35
2023-01-31T13:52:59.253Z,75.21
2023-01-31T13:55:55.083Z,75.96
2023-01-31T13:58:28.715Z,75.62
2023-01-31T14:01:09.853Z,75.45
2023-01-31T14:04:14.773Z,75.09
2023-01-31T14:06:56.423Z,75.29
2023-01-31T14:09:28.408Z,75.83
2023-01-31T14:11:59.983Z,75.07
2023-01-31T14:14:41.942Z,74.86
2023-01-31T14:17:11.400Z,75.94
2023-01-31T14:20:00.557Z,76.19
2023-01-31T14:22:34.890Z,75.38
2023-01-31T14:25:06.154Z,75.21
2023-01-31T14:27:38.740Z,75.36
2023-01-31T14:30:08.486Z,74.84
2023-01-31T14:32:44.857Z,76.08
2023-01-31T14:35:14.643Z,75.02
2023-01-31T14:38:06.469Z,74.64
2023-01-31T14:40:46.568Z,75.00
2023-01-31T14:43:41.983Z,75.37
2023-01-31T14:46:46.357Z,75.22
2023-01-31T14:49:27.405Z,75.14
2023-01-31T14:52:22.128Z,75.77
2023-01-31T14:55:08.863Z,76.48
2023-01-31T14:57:43.511Z,76.22
2023-01-31T15:00:23.004Z,75.98
2023-01-31T15:03:01.929Z,75.87
2023-01-31T15:05:31.506Z,75.66
2023-01-31T15:08:27.008Z,76.16
2023-01-31T15:11:03.629Z,76.98
2023-01-31T15:13:39.429Z,75.79
2023-01-31T15:16:16.684Z,75.98
2023-01-31T15:18:45.820Z,76.11
2023-01-31T15:21:12.579Z,75.72
2023-01-31T15:23:42.486Z,76.43
2023-01-31T15:26:09.388Z,76.83
2023-01-31T15:28:37.783Z,77.57
2023-01-31T15:31:07.675Z,77.09
2023-01-31T15:33:44.755Z,77.18
2023-01-31T15:36:19.919Z,78.41
2023-01-31T15:38:58.253Z,77.01
2023-01-31T15:41:26.899Z,77.32
2023-01-31T15:43:55.523Z,77.61
2023-01-31T15:46:32.280Z,77.25
2023-01-31T15:48:59.980Z,77.65
2023-01-31T15:51:27.053Z,77.69
2023-01-31T15:54:06.062Z,77.53
2023-01-31T15:56:36.364Z,77.83
2023-01-31T15:59:10.399Z,78.27
2023-01-31T16:01:37.114Z,79.10
2023-01-31T16:04:04.141Z,79.60
2023-01-31T16:06:37.017Z,79.92
2023-01-31T16:09:05.603Z,79.09
2023-01-31T16:11:34.435Z,80.01
2023-01-31T16:14:03.317Z,79.63
2023-01-31T16:16:30.212Z,79.27
2023-01-31T16:19:00.539Z,79.22
2023-01-31T16:21:31.887Z,78.64
2023-01-31T16:24:08.776Z,79.84
2023-01-31T16:26:38.712Z,78.74
2023-01-31T16:29:10.596Z,79.18
2023-01-31T16:31:45.912Z,79.07
2023-01-31T16:34:30.890Z,79.33
2023-01-31T16:37:00.851Z,78.56
2023-01-31T16:39:59.599Z,78.70
2023-01-31T16:42:29.306Z,78.14
2023-01-31T16:44:55.781Z,78.49
2023-01-31T16:47:34.537Z,77.83
2023-01-31T16:50:36.662Z,77.51
2023-01-31T16:53:16.135Z,78.36
2023-01-31T16:55:42.937Z,78.29
2023-01-31T16:58:12.412Z,77.75
2023-01-31T17:00:39.034Z,77.15
2023-01-31T17:03:14.046Z,78.07
2023-01-31T17:05:42.538Z,78.16
2023-01-31T17:08:27.043Z,78.28
2023-01-31T17:10:53.487Z,77.87
2023-01-31T17:13:22.269Z,78.29
2023-01-31T17:15:49.798Z,78.28
2023-01-31T17:18:17.117Z,79.32
2023-01-31T17:20:51.203Z,79.96
2023-01-31T17:23:18.683Z,80.42
2023-01-31T17:25:45.808Z,79.89
2023-01-31T17:28:12.288Z,80.00
2023-01-31T17:30:41.172Z,80.17
2023-01-31T17:33:13.309Z,79.93
2023-01-31T17:35:46.900Z,79.58
2023-01-31T17:38:13.610Z,79.40
2023-01-31T17:40:40.732Z,78.85
2023-01-31T17:43:07.563Z,78.92
2023-01-31T17:45:34.049Z,78.96
2023-01-31T17:48:00.504Z,79.10
2023-01-31T17:50:28.164Z,79.51
2023-01-31T17:52:55.343Z,79.44
2023-01-31T17:55:23.968Z,79.06
2023-01-31T17:57:51.182Z,79.43
2023-01-31T18:00:18.701Z,79.26
2023-01-31T18:02:45.824Z,79.52
2023-01-31T18:05:14.524Z,77.86
2023-01-31T18:07:41.002Z,78.59
2023-01-31T18:10:08.614Z,78.32
2023-01-31T18:12:36.487Z,77.83
2023-01-31T18:15:03.885Z,77.63
2023-01-31T18:17:30.339Z,77.46
2023-01-31T18:19:56.912Z,76.75
2023-01-31T18:22:23.588Z,76.53
2023-01-31T18:24:50.093Z,76.02
2023-01-31T18:27:16.546Z,74.95
2023-01-31T18:29:42.955Z,75.55
2023-01-31T18:32:10.517Z,75.11
2023-01-31T18:34:37.903Z,74.59
2023-01-31T18:37:10.258Z,75.17
2023-01-31T18:39:36.780Z,75.12
2023-01-31T18:42:03.561Z,74.13
2023-01-31T18:44:30.580Z,74.81
2023-01-31T18:46:57.255Z,74.14
2023-01-31T18:49:23.716Z,73.52
2023-01-31T18:51:50.075Z,74.09
2023-01-31T18:54:16.552Z,74.25
2023-01-31T18:56:43.507Z,74.24
2023-01-31T18:59:10.349Z,73.47
2023-01-31T19:01:36.802Z,72.67
2023-01-31T19:04:03.404Z,73.95
2023-01-31T19:06:36.946Z,73.11
2023-01-31T19:09:06.386Z,73.09
2023-01-31T19:11:33.237Z,73.16
2023-01-31T19:14:04.648Z,73.65
2023-01-31T19:16:31.141Z,73.44
2023-01-31T19:18:57.693Z,73.52
2023-01-31T19:21:26.850Z,73.13
2023-01-31T19:23:55.763Z,73.39
2023-01-31T19:26:23.473Z,72.96
2023-01-31T19:28:50.215Z,72.59
2023-01-31T19:31:22.254Z,73.02
2023-01-31T19:33:53.991Z,73.07
2023-01-31T19:36:25.854Z,72.65
2023-01-31T19:38:52.350Z,73.76
2023-01-31T19:41:20.978Z,73.56
2023-01-31T19:43:55.564Z,72.80
2023-01-31T19:46:23.353Z,73.44
2023-01-31T19:48:50.025Z,72.99
2023-01-31T19:51:18.591Z,72.54
2023-01-31T19:53:45.550Z,72.59
2023-01-31T19:56:12.417Z,73.11
2023-01-31T19:58:38.814Z,72.07
2023-01-31T20:01:07.912Z,71.85
2023-01-31T20:03:34.583Z,73.11
2023-01-31T20:06:09.465Z,74.20
2023-01-31T20:08:36.597Z,75.35
2023-01-31T20:11:05.921Z,75.59
2023-01-31T20:13:32.448Z,75.58
2023-01-31T20:15:59.941Z,75.56
2023-01-31T20:18:26.524Z,74.40
2023-01-31T20:20:53.631Z,74.54
2023-01-31T20:23:21.216Z,74.79
2023-01-31T20:25:51.829Z,76.31
2023-01-31T20:28:19.761Z,78.61
2023-01-31T20:30:47.025Z,80.47
2023-01-31T20:33:14.189Z,80.92
2023-01-31T20:35:41.288Z,81.26
2023-01-31T20:38:08.572Z,81.62
2023-01-31T20:40:36.396Z,82.72
2023-01-31T20:43:03.048Z,83.11
2023-01-31T20:45:29.539Z,82.17
2023-01-31T20:47:56.952Z,81.09
2023-01-31T20:50:24.478Z,81.69
2023-01-31T20:52:53.661Z,80.74
2023-01-31T20:55:20.675Z,81.20
2023-01-31T20:57:50.096Z,80.22
2023-01-31T21:00:18.367Z,81.65
2023-01-31T21:02:45.606Z,81.93
2023-01-31T21:05:12.238Z,80.78
2023-01-31T21:07:39.183Z,81.45
2023-01-31T21:10:06.409Z,80.22
2023-01-31T21:12:33.047Z,80.58
2023-01-31T21:14:59.428Z,80.64
2023-01-31T21:17:39.093Z,79.85
2023-01-31T21:20:07.691Z,79.66
2023-01-31T21:22:34.438Z,77.74
2023-01-31T21:25:01.073Z,78.21
2023-01-31T21:27:27.549Z,78.56
2023-01-31T21:29:53.990Z,78.53
2023-01-31T21:32:20.399Z,80.98
2023-01-31T21:34:46.935Z,81.66
2023-01-31T21:37:13.634Z,82.87
2023-01-31T21:39:40.037Z,83.17
2023-01-31T21:42:15.406Z,83.39
2023-01-31T21:44:42.772Z,83.11
2023-01-31T21:47:09.647Z,83.38
2023-01-31T21:49:36.299Z,82.93
2023-01-31T21:52:03.146Z,82.63
2023-01-31T21:54:29.562Z,82.82
2023-01-31T21:56:56.013Z,81.85
2023-01-31T21:59:23.109Z,81.69
2023-01-31T22:01:51.798Z,81.81
2023-01-31T22:04:23.257Z,81.11
2023-01-31T22:06:50.622Z,80.39
2023-01-31T22:09:17.756Z,80.13
2023-01-31T22:11:44.613Z,80.09
2023-01-31T22:14:13.571Z,79.79
2023-01-31T22:16:40.759Z,78.71
2023-01-31T22:19:08.002Z,78.90
2023-01-31T22:21:36.364Z,79.62
2023-01-31T22:24:05.025Z,79.35
2023-01-31T22:26:37.836Z,79.35
2023-01-31T22:29:06.924Z,78.17
2023-01-31T22:31:33.666Z,77.99
2023-01-31T22:34:01.014Z,77.86
2023-01-31T22:36:27.754Z,76.83
2023-01-31T22:38:54.687Z,77.27
2023-01-31T22:41:21.592Z,76.86
2023-01-31T22:43:49.969Z,75.80
2023-01-31T22:46:22.398Z,75.78
2023-01-31T22:48:49.518Z,75.96
2023-01-31T22:51:19.991Z,75.35
2023-01-31T22:53:46.771Z,75.02
2023-01-31T22:56:22.151Z,75.56
2023-01-31T22:58:49.286Z,75.20
2023-01-31T23:01:18.342Z,74.90
2023-01-31T23:03:45.454Z,75.60
2023-01-31T23:06:13.014Z,75.19
2023-01-31T23:08:39.866Z,74.65
2023-01-31T23:11:09.030Z,74.55
2023-01-31T23:13:36.152Z,75.38
2023-01-31T23:16:04.051Z,75.30
2023-01-31T23:18:30.807Z,74.84
2023-01-31T23:21:08.677Z,74.26
2023-01-31T23:23:35.699Z,73.89
2023-01-31T23:26:02.535Z,75.07
2023-01-31T23:28:29.071Z,74.39
2023-01-31T23:30:55.553Z,75.12
2023-01-31T23:33:22.179Z,75.95
2023-01-31T23:35:49.502Z,75.25
2023-01-31T23:38:16.234Z,74.98
2023-01-31T23:40:42.678Z,75.72
2023-01-31T23:43:09.329Z,75.93
2023-01-31T23:45:35.893Z,75.33
2023-01-31T23:48:02.294Z,75.74
2023-01-31T23:50:28.823Z,75.13
2023-01-31T23:52:55.300Z,76.40
2023-01-31T23:55:22.837Z,75.99
2023-01-31T23:57:50.332Z,76.06
